Impacts METAR Board INFO
IDs:

KDEN - Denver Intl, CO, US

Updated at: 0155 UTC 25 Feb 2018
Potential Impact None Slight Moderate High
Time24/13Z 24/14Z 24/15Z 24/16Z 24/17Z 24/18Z 24/19Z 24/20Z 24/21Z 24/22Z 24/23Z 25/00Z 25/01Z
VIS2 4 10 10 10 10 10 10 10 10 10 10 10
CIG2 -- -- -- -- -- -- -- -- -- -- -- --
CoverBKNSCTFEWFEWFEWFEWFEWSCTSCTFEWFEWFEWSCT
FltCatLIFRMVFRVFRVFRVFRVFRVFRVFRVFRVFRVFRVFRVFR
WXBRBR----------------------
WDir230250280260260270280270290280290290290
WSpd7 4 13 17 22 27 24 25 21 16 16 20 12
WGst-- -- -- 27 31 38 33 38 27 26 23 26 --
Raw hourly METARs
KDEN 241304Z 23007KT 2SM R35L/4000VP6000FT BR BKN002 BKN100 M07/M08 A2978 RMK AO2 T10671078
KDEN 241353Z 25004KT 4SM BR FEW002 FEW050 SCT100 M06/M08 A2979 RMK AO2 SLP117 T10611078
KDEN 241453Z 28013KT 10SM FEW040 FEW090 M04/M11 A2978 RMK AO2 SLP109 FG BNK VC N I3001 T10441111 50000
KDEN 241553Z 26017G27KT 10SM FEW030 FEW070 M02/M15 A2976 RMK AO2 PK WND 27029/1534 SLP102 T10221150 $
KDEN 241653Z 26022G31KT 10SM FEW030 FEW070 M01/M17 A2975 RMK AO2 PK WND 27036/1638 SLP093 T10111167 $
KDEN 241753Z 27027G38KT 10SM FEW070 00/M17 A2973 RMK AO2 PK WND 27038/1752 SLP082 I6001 T00001172 10006 21072 58013 $
KDEN 241853Z 28024G33KT 10SM FEW070 FEW200 01/M16 A2974 RMK AO2 PK WND 27041/1822 SLP081 T00111161 $
KDEN 241953Z 27025G38KT 10SM FEW070 SCT200 02/M17 A2972 RMK AO2 PK WND 27038/1943 SLP074 T00171172 $
KDEN 242053Z 29021G27KT 10SM FEW070 SCT160 02/M17 A2973 RMK AO2 PK WND 26037/1955 SLP079 T00171167 55000 $
KDEN 242153Z 28016G26KT 10SM FEW070 FEW180 02/M18 A2973 RMK AO2 PK WND 29030/2112 SLP080 T00221178 $
KDEN 242253Z 29016G23KT 10SM FEW100 FEW200 02/M17 A2973 RMK AO2 SLP081 T00171167 $
KDEN 242353Z 29020G26KT 10SM FEW100 FEW200 01/M16 A2973 RMK AO2 PK WND 30026/2352 SLP086 T00061161 10022 20000 58000 $
KDEN 250053Z 29012KT 10SM FEW100 SCT220 M01/M17 A2975 RMK AO2 PK WND 28031/0018 SLP097 T10111172 $